Disclaimer

Please do not use the information listed here in-flight or in-navigation, as they are not provided to us by the airports but are provided by volunteers, so they might be outdated.

Search


Regions


Airport information page

Radio informations:
Brisbane Center - 122.4 MHz
Common traffic adv. frequency (CTAF) - 126.5 MHz

Airport informations:
Latitude: 20° 39' 50.00" S
Longitude: 139° 29' 19.00" E
Elevation: 1121 feet - 342 meters
Operating hours: N/A
Operating agency: Civil government, landing fees and diplomatic clearance may be required
Timezone: UTC+10
Fuel: Jet A1, without icing nhibitor.

100/130 MIL Spec, low lead, aviation gasoline (BLUE)

Runway information:
12/30 - 2802 x 59 feet< - >854 x 18 meters
16/34 - 8399 x 148 feet< - >2560 x 45 meters

Recent METARs:
YBMA 141600Z AUTO 16005KT 9999 // NCD 26/21 Q1011
YBMA 141600Z AUTO 16005KT 9999 // NCD 26/21 Q1011
YBMA 141700Z AUTO 17007KT 9999 // NCD 27/21 Q1011

Airport on the map: